Ordinary, Virginia
Current Conditions -  °F | °C
As of 9:54 AM on Wednesday 26 Nov 2014 (Local Time) from KPHF Reporting Station
Moderate Rain Moderate Rain  
Wind Chill: 42°   Ceiling: 900
Heat Index: 48°   Visibility: 1mi
Dew Point: 44°   Wind: 16mph
Humidity: 86%   Direction: 30°NNE
Pressure: 29.89"   Gusts: 26mph
Location:  37.31°N, 76.51°W
Report Text: KPHF 261454Z 03014G23KT 1SM RA BR BKN009 OVC017 09/07 A2989 RMK AO2 PK WND 01028/1410 SLP120 P0006 60048 T00890067 58021
Loading
Personal Weather Stations






























Interactive Weather Map New forecast layout! Learn more

10-Day Weather Forecast

Advertisements
Track Severe Weather on mobile